Weather at Brittas Bay Airfield [CLOSED]

Public forecast

Using degrees Celsius for public forecast. Weather courtesy of forecast.io.

Closest aviation weather report (METAR) to Brittas Bay Airfield

Closest report is Casement Air Base, 30.0 nm (55.6 km) NNW. Retrieved 2022/01/27 08:00 UTC (20 minutes ago):

EIME 270800Z 26010KT 9999 FEW018 BKN030 09/07 Q1027

Closest aviation forecast (TAF) to Brittas Bay Airfield

Closest forecast is Dublin Airport, 34.6 nm (64.1 km) NNW. Retrieved 2022/01/27 06:11 UTC (2 hours ago):

TAF EIDW 270500Z 2706/2806 29011KT 9999 FEW009 SCT012 BKN025 PROB30 TEMPO 2706/2708 BKN012 BECMG 2720/2722 26005KT